Time;durP1;ratioP1;P1;durP2;ratioP2;P2;SDS_P1;SDS_P2;PMS_P1;PMS_P2;Temp;Humidity;BMP_temperature;BMP_pressure;BME280_temperature;BME280_humidity;BME280_pressure;Samples;Min_cycle;Max_cycle;Signal;HPM_P1;HPM_P2
2021/07/31 00:01:07;;;;;;;8.73;7.90;;;;;;;;;;5095033;28;20059;-73
2021/07/31 00:03:33;;;;;;;13.33;8.17;;;;;;;;;;5095045;28;20469;-73
2021/07/31 00:05:59;;;;;;;10.35;7.93;;;;;;;;;;5095058;28;20484;-73
2021/07/31 00:08:26;;;;;;;8.30;7.50;;;;;;;;;;5095386;28;20023;-72
2021/07/31 00:10:52;;;;;;;8.90;7.72;;;;;;;;;;5095374;28;20027;-73
2021/07/31 00:13:18;;;;;;;8.98;7.90;;;;;;;;;;5095257;28;20024;-72
2021/07/31 00:15:44;;;;;;;10.20;8.40;;;;;;;;;;5094906;28;20012;-73
2021/07/31 00:18:10;;;;;;;8.07;7.30;;;;;;;;;;5091226;28;20032;-73
2021/07/31 00:20:36;;;;;;;9.00;8.20;;;;;;;;;;5093280;28;20374;-73
2021/07/31 00:23:03;;;;;;;8.95;8.02;;;;;;;;;;5093705;28;20028;-73
2021/07/31 00:25:29;;;;;;;9.38;8.07;;;;;;;;;;5089749;28;20441;-72
2021/07/31 00:27:55;;;;;;;10.77;8.90;;;;;;;;;;5073435;28;20386;-72
2021/07/31 00:30:24;;;;;;;8.93;8.13;;;;;;;;;;5073857;28;20029;-74
2021/07/31 00:32:50;;;;;;;7.97;7.18;;;;;;;;;;5073765;28;20024;-74
2021/07/31 00:35:16;;;;;;;10.98;7.68;;;;;;;;;;5071670;28;20050;-74
2021/07/31 00:37:42;;;;;;;8.32;7.50;;;;;;;;;;5073553;28;20025;-73
2021/07/31 00:40:09;;;;;;;9.82;8.85;;;;;;;;;;5073778;28;20112;-72
2021/07/31 00:42:37;;;;;;;8.50;7.55;;;;;;;;;;5073773;28;20082;-71
2021/07/31 00:45:03;;;;;;;11.20;8.20;;;;;;;;;;5073351;28;20044;-74
2021/07/31 00:47:29;;;;;;;8.13;7.32;;;;;;;;;;5090759;28;20537;-74
2021/07/31 00:49:55;;;;;;;11.50;8.70;;;;;;;;;;5094374;28;20097;-73
2021/07/31 00:52:21;;;;;;;8.70;7.78;;;;;;;;;;5093958;28;20055;-73
2021/07/31 00:54:47;;;;;;;10.90;8.70;;;;;;;;;;5094652;28;20059;-72
2021/07/31 00:57:13;;;;;;;9.23;7.85;;;;;;;;;;5094584;28;20046;-72
2021/07/31 00:59:40;;;;;;;9.05;8.25;;;;;;;;;;5094609;28;20107;-73
2021/07/31 01:02:06;;;;;;;8.48;7.55;;;;;;;;;;5093803;28;20032;-73
2021/07/31 01:04:32;;;;;;;8.70;7.63;;;;;;;;;;5093269;28;20028;-73
2021/07/31 01:06:58;;;;;;;9.10;7.90;;;;;;;;;;5088063;28;20067;-73
2021/07/31 01:09:24;;;;;;;8.90;8.00;;;;;;;;;;5093318;28;20100;-74
2021/07/31 01:11:50;;;;;;;9.57;8.25;;;;;;;;;;5093872;28;20024;-73
2021/07/31 01:14:16;;;;;;;8.50;7.53;;;;;;;;;;5092245;28;20028;-73
2021/07/31 01:16:42;;;;;;;8.73;7.80;;;;;;;;;;5092960;28;20027;-73
2021/07/31 01:19:08;;;;;;;9.65;8.05;;;;;;;;;;5093277;28;20020;-73
2021/07/31 01:21:36;;;;;;;8.27;7.43;;;;;;;;;;5093511;28;20118;-73
2021/07/31 01:24:02;;;;;;;12.02;7.45;;;;;;;;;;5090845;28;20120;-73
2021/07/31 01:26:28;;;;;;;9.88;8.85;;;;;;;;;;5093132;28;20142;-73
2021/07/31 01:28:54;;;;;;;9.35;8.50;;;;;;;;;;5093552;28;20028;-73
2021/07/31 01:31:20;;;;;;;9.25;7.80;;;;;;;;;;5093291;28;20039;-73
2021/07/31 01:33:46;;;;;;;8.85;7.95;;;;;;;;;;5086450;28;20474;-72
2021/07/31 01:36:12;;;;;;;9.60;8.73;;;;;;;;;;5077231;28;20523;-72
2021/07/31 01:38:38;;;;;;;9.43;8.52;;;;;;;;;;5077025;28;20478;-72
2021/07/31 01:41:05;;;;;;;9.25;8.32;;;;;;;;;;5075785;28;20046;-73
2021/07/31 01:43:31;;;;;;;9.35;8.32;;;;;;;;;;5077152;28;20024;-72
2021/07/31 01:45:57;;;;;;;11.00;8.20;;;;;;;;;;5077327;28;20027;-74
2021/07/31 01:48:23;;;;;;;9.18;8.38;;;;;;;;;;5077199;28;20470;-73
2021/07/31 01:50:49;;;;;;;9.40;8.23;;;;;;;;;;5077114;28;20489;-73
2021/07/31 01:53:15;;;;;;;9.30;8.43;;;;;;;;;;5077110;28;20490;-72
2021/07/31 01:55:42;;;;;;;8.40;7.68;;;;;;;;;;5077283;28;20474;-73
2021/07/31 01:58:08;;;;;;;10.18;8.07;;;;;;;;;;5077015;28;20033;-73
2021/07/31 02:00:34;;;;;;;9.77;8.05;;;;;;;;;;5076993;28;20029;-73
2021/07/31 02:03:00;;;;;;;10.05;8.05;;;;;;;;;;5077142;28;20032;-73
2021/07/31 02:05:26;;;;;;;12.90;8.32;;;;;;;;;;5077309;28;20103;-72
2021/07/31 02:07:52;;;;;;;8.85;8.05;;;;;;;;;;5077193;28;20042;-73
2021/07/31 02:10:18;;;;;;;8.63;7.45;;;;;;;;;;5077120;28;20024;-73
2021/07/31 02:12:44;;;;;;;8.80;8.00;;;;;;;;;;5076887;28;20024;-73
2021/07/31 02:15:10;;;;;;;8.57;7.78;;;;;;;;;;5076750;28;20021;-73
2021/07/31 02:17:36;;;;;;;8.52;7.82;;;;;;;;;;5076491;28;20374;-71
2021/07/31 02:20:02;;;;;;;8.73;7.82;;;;;;;;;;5076483;28;20032;-73
2021/07/31 02:22:28;;;;;;;15.38;8.57;;;;;;;;;;5076598;28;20021;-73
2021/07/31 02:24:55;;;;;;;8.32;7.55;;;;;;;;;;5077010;28;20051;-73
2021/07/31 02:27:21;;;;;;;8.82;7.72;;;;;;;;;;5076525;28;20020;-73
2021/07/31 02:29:47;;;;;;;9.10;8.32;;;;;;;;;;5076207;28;20385;-72
2021/07/31 02:32:13;;;;;;;9.75;8.38;;;;;;;;;;5076227;28;20032;-72
2021/07/31 02:34:39;;;;;;;8.93;8.13;;;;;;;;;;5076690;28;20039;-72
2021/07/31 02:37:05;;;;;;;9.35;8.55;;;;;;;;;;5076769;28;20035;-73
2021/07/31 02:39:31;;;;;;;10.82;7.68;;;;;;;;;;5076159;28;20035;-72
2021/07/31 02:41:57;;;;;;;9.02;8.13;;;;;;;;;;5075952;28;20478;-72
2021/07/31 02:44:23;;;;;;;12.38;9.55;;;;;;;;;;5075365;28;20060;-72
2021/07/31 02:46:50;;;;;;;8.93;8.02;;;;;;;;;;5076471;28;20021;-72
2021/07/31 02:49:16;;;;;;;8.73;7.93;;;;;;;;;;5076068;28;20103;-72
2021/07/31 02:51:42;;;;;;;9.63;8.70;;;;;;;;;;5075833;28;20024;-73
2021/07/31 02:54:08;;;;;;;11.00;7.57;;;;;;;;;;5075791;28;20025;-72
2021/07/31 02:56:34;;;;;;;13.38;8.23;;;;;;;;;;5075863;28;20025;-72
2021/07/31 02:59:00;;;;;;;10.63;7.55;;;;;;;;;;5075898;28;20455;-73
2021/07/31 03:01:26;;;;;;;8.20;7.40;;;;;;;;;;5075737;28;20032;-72
2021/07/31 03:03:52;;;;;;;12.38;7.85;;;;;;;;;;5076180;28;20028;-72
2021/07/31 03:06:18;;;;;;;8.82;7.88;;;;;;;;;;5075714;28;20028;-72
2021/07/31 03:08:44;;;;;;;9.77;7.88;;;;;;;;;;5075673;28;20103;-72
2021/07/31 03:11:10;;;;;;;8.90;8.02;;;;;;;;;;5075944;28;20078;-72
2021/07/31 03:13:36;;;;;;;8.48;7.68;;;;;;;;;;5075648;28;20388;-73
2021/07/31 03:16:02;;;;;;;9.68;8.18;;;;;;;;;;5075230;28;20021;-73
2021/07/31 03:18:28;;;;;;;26.45;12.27;;;;;;;;;;5075352;28;20081;-73
2021/07/31 03:20:54;;;;;;;183.55;54.63;;;;;;;;;;5075561;28;20064;-73
2021/07/31 03:23:21;;;;;;;122.60;39.97;;;;;;;;;;5075746;28;20021;-73
2021/07/31 03:25:47;;;;;;;90.97;34.72;;;;;;;;;;5075210;28;20466;-73
2021/07/31 03:28:13;;;;;;;69.47;26.05;;;;;;;;;;5075187;28;20427;-72
2021/07/31 03:30:41;;;;;;;63.17;25.70;;;;;;;;;;5074750;28;20033;-73
2021/07/31 03:33:07;;;;;;;58.42;21.88;;;;;;;;;;5073686;28;20112;-72
2021/07/31 03:35:33;;;;;;;47.95;20.23;;;;;;;;;;5073970;28;20033;-72
2021/07/31 03:37:59;;;;;;;35.75;17.80;;;;;;;;;;5073561;28;20028;-71
2021/07/31 03:40:25;;;;;;;40.65;18.38;;;;;;;;;;5074617;28;20047;-71
2021/07/31 03:42:51;;;;;;;33.78;17.33;;;;;;;;;;5074051;28;20474;-71
2021/07/31 03:45:17;;;;;;;51.63;18.60;;;;;;;;;;5074601;28;20413;-71
2021/07/31 03:47:44;;;;;;;33.38;17.05;;;;;;;;;;5074711;28;20028;-70
2021/07/31 03:50:10;;;;;;;34.17;14.48;;;;;;;;;;5075311;28;20024;-70
2021/07/31 03:52:36;;;;;;;25.10;13.10;;;;;;;;;;5075031;28;20429;-71
2021/07/31 03:55:02;;;;;;;22.50;13.38;;;;;;;;;;5074910;28;20111;-71
2021/07/31 03:57:28;;;;;;;19.83;13.43;;;;;;;;;;5074583;28;20505;-71
2021/07/31 03:59:54;;;;;;;19.05;13.10;;;;;;;;;;5074511;28;20024;-72
2021/07/31 04:02:20;;;;;;;19.73;13.38;;;;;;;;;;5075159;28;20063;-71
2021/07/31 04:04:46;;;;;;;20.77;11.93;;;;;;;;;;5074821;28;20059;-71
2021/07/31 04:07:12;;;;;;;22.02;12.02;;;;;;;;;;5074691;28;20056;-71
2021/07/31 04:09:38;;;;;;;18.23;11.55;;;;;;;;;;5074936;28;20029;-71
2021/07/31 04:12:05;;;;;;;18.25;10.73;;;;;;;;;;5074635;28;20027;-71
2021/07/31 04:14:31;;;;;;;18.42;11.48;;;;;;;;;;5074208;28;20052;-72
2021/07/31 04:16:57;;;;;;;16.17;11.32;;;;;;;;;;5074406;28;20052;-71
2021/07/31 04:19:23;;;;;;;18.90;10.30;;;;;;;;;;5074796;28;20456;-71
2021/07/31 04:21:53;;;;;;;22.42;10.48;;;;;;;;;;5074893;28;20037;-70
2021/07/31 04:24:19;;;;;;;12.48;9.65;;;;;;;;;;5074702;28;20070;-71
2021/07/31 04:26:46;;;;;;;10.70;9.60;;;;;;;;;;5074303;28;20020;-71
2021/07/31 04:29:12;;;;;;;13.50;10.90;;;;;;;;;;5074279;28;20103;-74
2021/07/31 04:31:38;;;;;;;10.82;9.27;;;;;;;;;;5074333;28;20043;-72
2021/07/31 04:34:04;;;;;;;14.98;9.52;;;;;;;;;;5075097;28;20485;-71
2021/07/31 04:36:31;;;;;;;12.77;9.15;;;;;;;;;;5074654;28;20351;-71
2021/07/31 04:38:57;;;;;;;18.15;10.80;;;;;;;;;;5074334;28;20540;-71
2021/07/31 04:41:24;;;;;;;13.98;9.05;;;;;;;;;;5074129;28;20378;-71
2021/07/31 04:43:50;;;;;;;13.70;9.60;;;;;;;;;;5073850;28;20028;-71
2021/07/31 04:46:16;;;;;;;12.93;9.80;;;;;;;;;;5075003;28;20082;-71
2021/07/31 04:48:42;;;;;;;17.33;8.90;;;;;;;;;;5074254;28;20481;-71
2021/07/31 04:51:09;;;;;;;17.70;9.63;;;;;;;;;;5075819;28;20031;-72
2021/07/31 04:53:35;;;;;;;18.42;8.75;;;;;;;;;;5074675;28;20056;-72
2021/07/31 04:56:01;;;;;;;10.45;8.45;;;;;;;;;;5073889;28;20024;-74
2021/07/31 04:58:27;;;;;;;24.63;9.65;;;;;;;;;;5073225;28;20024;-76
2021/07/31 05:00:55;;;;;;;18.08;8.70;;;;;;;;;;5073580;28;20036;-73
2021/07/31 05:03:21;;;;;;;9.75;8.13;;;;;;;;;;5073874;28;20086;-71
2021/07/31 05:05:47;;;;;;;15.95;9.30;;;;;;;;;;5074316;28;20020;-73
2021/07/31 05:08:13;;;;;;;9.75;7.63;;;;;;;;;;5075562;28;20027;-72
2021/07/31 05:10:41;;;;;;;11.98;7.80;;;;;;;;;;5093949;28;20059;-73
2021/07/31 05:13:07;;;;;;;11.40;7.75;;;;;;;;;;5079052;28;20032;-75
2021/07/31 05:15:34;;;;;;;12.73;7.80;;;;;;;;;;5078000;28;20033;-75
2021/07/31 05:18:00;;;;;;;10.85;7.65;;;;;;;;;;5077669;28;20032;-71
2021/07/31 05:20:27;;;;;;;10.10;7.57;;;;;;;;;;5091899;28;20032;-72
2021/07/31 05:22:53;;;;;;;7.82;6.68;;;;;;;;;;5096984;28;20053;-71
2021/07/31 05:25:20;;;;;;;10.40;8.05;;;;;;;;;;5097506;28;20047;-72
2021/07/31 05:27:46;;;;;;;9.13;7.72;;;;;;;;;;5097814;28;20032;-73
2021/07/31 05:30:12;;;;;;;10.88;7.20;;;;;;;;;;5079910;28;20025;-73
2021/07/31 05:32:38;;;;;;;9.63;6.80;;;;;;;;;;5091676;28;20055;-74
2021/07/31 05:35:05;;;;;;;9.23;6.88;;;;;;;;;;5097481;28;20020;-70
2021/07/31 05:37:31;;;;;;;9.75;6.93;;;;;;;;;;5096864;28;20035;-72
2021/07/31 05:39:59;;;;;;;7.65;6.45;;;;;;;;;;5094015;28;20028;-72
2021/07/31 05:42:25;;;;;;;11.50;7.07;;;;;;;;;;5097359;28;20424;-72
2021/07/31 05:44:56;;;;;;;7.78;6.63;;;;;;;;;;5098040;28;20032;-73
2021/07/31 05:47:24;;;;;;;10.82;6.50;;;;;;;;;;5097948;28;20031;-73
2021/07/31 05:49:50;;;;;;;9.25;7.70;;;;;;;;;;5084119;28;20027;-72
2021/07/31 05:52:17;;;;;;;7.70;6.90;;;;;;;;;;5087218;28;20065;-72
2021/07/31 05:54:43;;;;;;;9.15;6.30;;;;;;;;;;5096865;28;20059;-77
2021/07/31 05:57:09;;;;;;;7.30;6.43;;;;;;;;;;5096995;28;20028;-76
2021/07/31 05:59:35;;;;;;;9.77;6.28;;;;;;;;;;5094043;28;20036;-73
2021/07/31 06:02:01;;;;;;;12.25;8.20;;;;;;;;;;5096525;28;20076;-73
2021/07/31 06:04:28;;;;;;;9.05;7.10;;;;;;;;;;5097358;28;20547;-73
2021/07/31 06:06:54;;;;;;;8.45;6.97;;;;;;;;;;5096894;28;20028;-74
2021/07/31 06:09:22;;;;;;;8.02;7.10;;;;;;;;;;5092412;28;20040;-70
2021/07/31 06:11:48;;;;;;;8.43;6.45;;;;;;;;;;5095821;28;20101;-73
2021/07/31 06:14:14;;;;;;;7.82;6.57;;;;;;;;;;5096056;28;20032;-71
2021/07/31 06:16:40;;;;;;;7.43;6.72;;;;;;;;;;5095487;28;20030;-73
2021/07/31 06:19:06;;;;;;;7.75;6.95;;;;;;;;;;5093176;28;20031;-72
2021/07/31 06:21:32;;;;;;;8.85;6.13;;;;;;;;;;5094704;28;20132;-72
2021/07/31 06:23:58;;;;;;;8.32;6.97;;;;;;;;;;5095023;28;20077;-73
2021/07/31 06:26:24;;;;;;;7.05;6.45;;;;;;;;;;5095170;28;20035;-75
2021/07/31 06:28:50;;;;;;;7.95;6.65;;;;;;;;;;5095195;28;20094;-73
2021/07/31 06:31:16;;;;;;;10.85;6.07;;;;;;;;;;5095034;28;20023;-73
2021/07/31 06:33:42;;;;;;;9.77;6.47;;;;;;;;;;5095176;28;20028;-73
2021/07/31 06:36:08;;;;;;;6.90;5.38;;;;;;;;;;5095410;28;20030;-75
2021/07/31 06:38:34;;;;;;;6.53;5.80;;;;;;;;;;5095445;28;20491;-72
2021/07/31 06:41:00;;;;;;;6.22;5.63;;;;;;;;;;5095745;28;20374;-72
2021/07/31 06:43:27;;;;;;;5.20;4.70;;;;;;;;;;5096285;28;20023;-71
2021/07/31 06:45:53;;;;;;;7.25;6.32;;;;;;;;;;5095444;28;20025;-72
2021/07/31 06:48:19;;;;;;;11.43;5.40;;;;;;;;;;5095874;28;20020;-72
2021/07/31 06:50:45;;;;;;;5.85;5.43;;;;;;;;;;5095456;28;20118;-72
2021/07/31 06:53:11;;;;;;;7.93;5.78;;;;;;;;;;5096006;28;20059;-71
2021/07/31 06:55:37;;;;;;;7.28;5.88;;;;;;;;;;5095590;28;20020;-72
2021/07/31 06:58:03;;;;;;;5.03;4.63;;;;;;;;;;5093622;28;20028;-73
2021/07/31 07:00:29;;;;;;;5.75;4.78;;;;;;;;;;5094970;28;20051;-75
2021/07/31 07:02:55;;;;;;;8.02;5.05;;;;;;;;;;5095359;28;20024;-78
2021/07/31 07:05:21;;;;;;;10.48;6.70;;;;;;;;;;5094947;28;20093;-73
2021/07/31 07:07:47;;;;;;;15.77;6.63;;;;;;;;;;5094947;28;20024;-73
2021/07/31 07:10:14;;;;;;;9.52;7.88;;;;;;;;;;5093844;28;20058;-74
2021/07/31 07:12:40;;;;;;;8.35;6.35;;;;;;;;;;5094064;28;20059;-75
2021/07/31 07:15:06;;;;;;;9.23;6.13;;;;;;;;;;5094389;28;20036;-73
2021/07/31 07:17:32;;;;;;;7.55;6.47;;;;;;;;;;5094681;28;20028;-76
2021/07/31 07:19:58;;;;;;;11.30;6.85;;;;;;;;;;5094010;28;20069;-74
2021/07/31 07:22:24;;;;;;;6.93;5.78;;;;;;;;;;5094790;28;20032;-74
2021/07/31 07:24:50;;;;;;;9.30;5.07;;;;;;;;;;5093899;28;20036;-72
2021/07/31 07:27:16;;;;;;;7.13;5.82;;;;;;;;;;5094141;28;20056;-72
2021/07/31 07:29:42;;;;;;;12.45;5.68;;;;;;;;;;5094351;28;20037;-72
2021/07/31 07:32:09;;;;;;;6.22;5.63;;;;;;;;;;5093811;28;20028;-72
2021/07/31 07:34:38;;;;;;;7.50;6.20;;;;;;;;;;5094771;28;20035;-72
2021/07/31 07:37:05;;;;;;;9.38;5.97;;;;;;;;;;5094673;28;20016;-73
2021/07/31 07:39:31;;;;;;;8.50;5.85;;;;;;;;;;5094444;28;20081;-74
2021/07/31 07:41:57;;;;;;;5.78;5.00;;;;;;;;;;5094211;28;20036;-72
2021/07/31 07:44:23;;;;;;;8.00;6.18;;;;;;;;;;5094002;28;20493;-73
2021/07/31 07:46:49;;;;;;;6.07;5.57;;;;;;;;;;5093347;28;20473;-72
2021/07/31 07:49:15;;;;;;;6.85;5.07;;;;;;;;;;5093727;28;20028;-72
2021/07/31 07:51:41;;;;;;;11.48;5.25;;;;;;;;;;5092160;28;20036;-72
2021/07/31 07:54:07;;;;;;;9.07;6.35;;;;;;;;;;5093908;28;20066;-73
2021/07/31 07:56:33;;;;;;;7.05;5.43;;;;;;;;;;5093960;28;20024;-71
2021/07/31 07:59:00;;;;;;;6.30;5.70;;;;;;;;;;5094732;28;20055;-71
2021/07/31 08:01:28;;;;;;;8.13;5.70;;;;;;;;;;5092679;28;20043;-72
2021/07/31 08:03:56;;;;;;;6.85;5.32;;;;;;;;;;5081870;28;20027;-72
2021/07/31 08:06:23;;;;;;;8.90;8.10;;;;;;;;;;5077375;28;20048;-71
2021/07/31 08:08:49;;;;;;;9.10;6.38;;;;;;;;;;5078135;28;20024;-72
2021/07/31 08:11:15;;;;;;;7.07;6.32;;;;;;;;;;5083746;28;20078;-73
2021/07/31 08:13:41;;;;;;;6.93;6.32;;;;;;;;;;5082463;28;20458;-72
2021/07/31 08:16:07;;;;;;;8.60;7.55;;;;;;;;;;5082299;28;20381;-72
2021/07/31 08:18:33;;;;;;;6.90;6.07;;;;;;;;;;5083324;28;20017;-70
2021/07/31 08:20:59;;;;;;;6.95;6.25;;;;;;;;;;5080245;28;20067;-72
2021/07/31 08:23:25;;;;;;;6.15;5.65;;;;;;;;;;5081766;28;20020;-72
2021/07/31 08:25:51;;;;;;;6.60;6.00;;;;;;;;;;5084113;28;20027;-72
2021/07/31 08:28:17;;;;;;;7.07;6.38;;;;;;;;;;5092831;28;20068;-71
2021/07/31 08:30:43;;;;;;;7.78;7.05;;;;;;;;;;5093521;28;20028;-73
2021/07/31 08:33:10;;;;;;;6.10;5.60;;;;;;;;;;5093128;28;20062;-72
2021/07/31 08:35:36;;;;;;;8.35;5.70;;;;;;;;;;5092226;28;20035;-72
2021/07/31 08:38:02;;;;;;;6.53;5.38;;;;;;;;;;5090631;28;20059;-73
2021/07/31 08:40:28;;;;;;;8.57;7.80;;;;;;;;;;5090563;28;20480;-72
2021/07/31 08:42:54;;;;;;;7.75;6.70;;;;;;;;;;5093965;28;20047;-72
2021/07/31 08:45:20;;;;;;;7.20;6.57;;;;;;;;;;5096729;28;20016;-72
2021/07/31 08:47:47;;;;;;;7.10;6.20;;;;;;;;;;5096355;28;20024;-72
2021/07/31 08:50:13;;;;;;;6.88;6.28;;;;;;;;;;5097129;28;20028;-72
2021/07/31 08:52:40;;;;;;;7.18;6.55;;;;;;;;;;5096667;28;20051;-72
2021/07/31 08:55:06;;;;;;;9.75;8.80;;;;;;;;;;5097016;28;20089;-72
2021/07/31 08:57:32;;;;;;;11.13;8.20;;;;;;;;;;5097122;28;20020;-72
2021/07/31 08:59:58;;;;;;;9.38;6.28;;;;;;;;;;5096962;28;20107;-72
2021/07/31 09:02:24;;;;;;;6.88;6.07;;;;;;;;;;5097077;28;20032;-73
2021/07/31 09:04:51;;;;;;;10.00;7.72;;;;;;;;;;5097372;28;20024;-71
2021/07/31 09:07:17;;;;;;;9.85;7.18;;;;;;;;;;5096611;28;20421;-74
2021/07/31 09:09:43;;;;;;;6.57;5.97;;;;;;;;;;5097160;28;20037;-74
2021/07/31 09:12:10;;;;;;;7.82;6.07;;;;;;;;;;5096990;28;20047;-76
2021/07/31 09:14:36;;;;;;;6.45;5.85;;;;;;;;;;5096736;28;20050;-75
2021/07/31 09:17:03;;;;;;;6.63;6.03;;;;;;;;;;5097310;28;20102;-74
2021/07/31 09:19:29;;;;;;;7.13;6.53;;;;;;;;;;5096221;28;20103;-73
2021/07/31 09:22:10;;;;;;;6.85;6.25;;;;;;;;;;5087577;28;20031;-72
2021/07/31 09:24:36;;;;;;;8.68;7.88;;;;;;;;;;5096931;28;20024;-74
2021/07/31 09:27:02;;;;;;;8.75;7.85;;;;;;;;;;5097244;28;20465;-73
2021/07/31 09:29:32;;;;;;;7.28;6.60;;;;;;;;;;5096817;28;20107;-74
2021/07/31 09:31:59;;;;;;;7.13;6.50;;;;;;;;;;5096527;28;20024;-74
2021/07/31 09:34:27;;;;;;;8.05;6.80;;;;;;;;;;5088884;28;20283;-74
2021/07/31 09:37:14;;;;;;;7.45;6.75;;;;;;;;;;5085790;28;20029;-74
2021/07/31 09:40:00;;;;;;;7.93;5.93;;;;;;;;;;5075225;28;20089;-74
2021/07/31 09:42:44;;;;;;;8.52;6.95;;;;;;;;;;5081784;28;20458;-75
2021/07/31 09:45:11;;;;;;;6.85;6.25;;;;;;;;;;5097190;28;20473;-75
2021/07/31 09:47:39;;;;;;;7.18;6.50;;;;;;;;;;5096326;28;20021;-74
2021/07/31 09:50:05;;;;;;;7.28;6.20;;;;;;;;;;5096233;28;20097;-75
2021/07/31 09:52:32;;;;;;;7.05;6.35;;;;;;;;;;5095730;28;20055;-75
2021/07/31 09:54:58;;;;;;;11.00;7.22;;;;;;;;;;5095641;28;20024;-74
2021/07/31 09:57:28;;;;;;;8.13;6.45;;;;;;;;;;5096382;28;20020;-75
2021/07/31 09:59:55;;;;;;;6.90;6.30;;;;;;;;;;5095495;28;20027;-74
2021/07/31 10:02:21;;;;;;;7.22;6.63;;;;;;;;;;5096524;28;20466;-75
2021/07/31 10:04:48;;;;;;;12.27;6.85;;;;;;;;;;5082579;28;20028;-75
2021/07/31 10:07:15;;;;;;;13.75;6.43;;;;;;;;;;5077530;28;20032;-74
2021/07/31 10:09:45;;;;;;;6.22;5.72;;;;;;;;;;5075656;28;20028;-74
2021/07/31 10:12:11;;;;;;;8.90;6.55;;;;;;;;;;5080352;28;20024;-75
2021/07/31 10:14:38;;;;;;;6.25;5.60;;;;;;;;;;5084667;28;20027;-75
2021/07/31 10:17:04;;;;;;;6.30;5.70;;;;;;;;;;5085332;28;20021;-76
2021/07/31 10:19:39;;;;;;;6.47;5.88;;;;;;;;;;5089139;28;20373;-77
2021/07/31 10:22:05;;;;;;;7.75;5.95;;;;;;;;;;5094519;28;20035;-77
2021/07/31 10:24:31;;;;;;;6.43;5.82;;;;;;;;;;5095784;28;20484;-79
2021/07/31 10:27:17;;;;;;;8.32;5.72;;;;;;;;;;5095730;28;20085;-78
2021/07/31 10:29:43;;;;;;;6.38;5.78;;;;;;;;;;5080370;28;20020;-76
2021/07/31 10:32:32;;;;;;;11.68;10.60;;;;;;;;;;5095063;28;20030;-79
2021/07/31 10:35:01;;;;;;;12.05;10.88;;;;;;;;;;5080806;28;20024;-76
2021/07/31 10:37:47;;;;;;;23.08;19.20;;;;;;;;;;5095776;28;20026;-75
2021/07/31 10:40:34;;;;;;;14.18;10.68;;;;;;;;;;5080647;28;20020;-75
2021/07/31 10:43:02;;;;;;;22.25;19.25;;;;;;;;;;5073435;28;20478;-74
2021/07/31 10:45:30;;;;;;;51.45;38.03;;;;;;;;;;5094439;28;20374;-77
2021/07/31 10:47:57;;;;;;;61.58;24.92;;;;;;;;;;5094335;28;20082;-76
2021/07/31 10:50:43;;;;;;;15.38;11.25;;;;;;;;;;5095055;28;20024;-75
2021/07/31 10:53:10;;;;;;;19.83;14.93;;;;;;;;;;5079932;28;20385;-75
2021/07/31 10:55:56;;;;;;;12.77;10.30;;;;;;;;;;5094290;28;20467;-77
2021/07/31 10:58:22;;;;;;;21.50;17.02;;;;;;;;;;5079740;28;20075;-75
2021/07/31 11:00:50;;;;;;;20.65;15.13;;;;;;;;;;5091265;28;20115;-74
2021/07/31 11:03:36;;;;;;;18.67;12.10;;;;;;;;;;5085782;28;20028;-77
2021/07/31 11:06:04;;;;;;;11.52;10.30;;;;;;;;;;5079108;28;20488;-77
2021/07/31 11:08:30;;;;;;;16.08;9.75;;;;;;;;;;5094235;28;20024;-74
2021/07/31 11:10:58;;;;;;;7.45;6.72;;;;;;;;;;5094034;28;20448;-76
2021/07/31 11:13:44;;;;;;;9.30;8.20;;;;;;;;;;5094151;28;20081;-77
2021/07/31 11:16:19;;;;;;;16.02;8.00;;;;;;;;;;5079525;28;20017;-77
2021/07/31 11:18:47;;;;;;;7.65;6.97;;;;;;;;;;5094510;28;20580;-77
2021/07/31 11:21:33;;;;;;;13.38;10.52;;;;;;;;;;5083674;28;20068;-73
2021/07/31 11:24:04;;;;;;;15.50;7.68;;;;;;;;;;5068713;28;20044;-74
2021/07/31 11:26:32;;;;;;;15.23;12.00;;;;;;;;;;5091619;28;20076;-75
2021/07/31 11:28:58;;;;;;;13.63;12.35;;;;;;;;;;5072597;28;20055;-75
2021/07/31 11:31:24;;;;;;;10.20;9.23;;;;;;;;;;5073579;28;20032;-74
2021/07/31 11:34:08;;;;;;;12.25;9.07;;;;;;;;;;5073505;28;20444;-74
2021/07/31 11:36:34;;;;;;;9.85;8.60;;;;;;;;;;5073827;28;20052;-75
2021/07/31 11:39:01;;;;;;;13.90;8.43;;;;;;;;;;5071634;28;20063;-76
2021/07/31 11:41:28;;;;;;;10.25;7.80;;;;;;;;;;5080458;28;20032;-75
2021/07/31 11:43:55;;;;;;;15.88;10.10;;;;;;;;;;5078022;28;20035;-77
2021/07/31 11:46:25;;;;;;;11.88;8.75;;;;;;;;;;5072963;28;20386;-76
2021/07/31 11:48:51;;;;;;;8.45;7.28;;;;;;;;;;5083448;28;20043;-76
2021/07/31 11:51:17;;;;;;;8.93;8.13;;;;;;;;;;5093389;28;20035;-76
2021/07/31 11:53:43;;;;;;;8.70;7.75;;;;;;;;;;5093829;28;20500;-75
2021/07/31 11:56:10;;;;;;;11.48;9.00;;;;;;;;;;5089738;28;20355;-76
2021/07/31 11:58:37;;;;;;;18.30;8.52;;;;;;;;;;5093170;28;20032;-78
2021/07/31 12:01:03;;;;;;;9.07;7.95;;;;;;;;;;5088684;28;20040;-78
2021/07/31 12:03:49;;;;;;;9.80;8.80;;;;;;;;;;5076310;28;20039;-75
2021/07/31 12:06:35;;;;;;;9.20;8.20;;;;;;;;;;5076790;28;20477;-76
2021/07/31 12:09:05;;;;;;;9.48;8.48;;;;;;;;;;5077179;28;20579;-77
2021/07/31 12:11:34;;;;;;;10.23;9.23;;;;;;;;;;5072995;28;20043;-76
2021/07/31 12:14:01;;;;;;;9.10;8.07;;;;;;;;;;5072868;28;20024;-75
2021/07/31 12:16:27;;;;;;;8.45;7.63;;;;;;;;;;5073048;28;20073;-77
2021/07/31 12:18:53;;;;;;;15.02;7.50;;;;;;;;;;5073584;28;20082;-78
2021/07/31 12:21:23;;;;;;;8.35;7.20;;;;;;;;;;5071034;28;20024;-77
2021/07/31 12:23:49;;;;;;;9.15;7.20;;;;;;;;;;5073387;28;20048;-76
2021/07/31 12:26:20;;;;;;;7.90;7.20;;;;;;;;;;5073904;28;20024;-76
2021/07/31 12:28:48;;;;;;;9.07;7.07;;;;;;;;;;5073229;28;20028;-76
2021/07/31 12:31:22;;;;;;;8.23;7.30;;;;;;;;;;5083933;28;20032;-75
2021/07/31 12:33:49;;;;;;;7.40;6.70;;;;;;;;;;5073262;28;20089;-77
2021/07/31 12:36:15;;;;;;;8.50;7.60;;;;;;;;;;5073276;28;20028;-77
2021/07/31 12:38:41;;;;;;;8.73;7.32;;;;;;;;;;5073573;28;20165;-76
2021/07/31 12:41:07;;;;;;;7.05;6.45;;;;;;;;;;5087268;28;20481;-78
2021/07/31 12:43:33;;;;;;;6.80;6.30;;;;;;;;;;5093889;28;20503;-77
2021/07/31 12:46:00;;;;;;;7.32;6.63;;;;;;;;;;5093600;28;20024;-77
2021/07/31 12:48:26;;;;;;;7.13;6.47;;;;;;;;;;5094500;28;20114;-78
2021/07/31 12:50:53;;;;;;;7.85;7.25;;;;;;;;;;5089377;28;20428;-75
2021/07/31 12:53:19;;;;;;;10.05;6.47;;;;;;;;;;5081403;28;20058;-73
2021/07/31 12:55:45;;;;;;;7.85;7.05;;;;;;;;;;5091546;28;20024;-74
2021/07/31 12:58:12;;;;;;;9.07;6.90;;;;;;;;;;5091427;28;20028;-75
2021/07/31 13:00:38;;;;;;;7.25;6.55;;;;;;;;;;5092438;28;20067;-74
2021/07/31 13:03:06;;;;;;;13.85;7.10;;;;;;;;;;5083115;28;20070;-75
2021/07/31 13:05:32;;;;;;;9.65;6.22;;;;;;;;;;5072509;28;20025;-74
2021/07/31 13:07:59;;;;;;;10.30;6.25;;;;;;;;;;5072023;28;20025;-72
2021/07/31 13:10:26;;;;;;;8.57;7.22;;;;;;;;;;5084122;28;20148;-71
2021/07/31 13:12:52;;;;;;;8.60;5.70;;;;;;;;;;5092718;28;20028;-72
2021/07/31 13:15:19;;;;;;;6.88;6.15;;;;;;;;;;5093053;28;20510;-73
2021/07/31 13:17:45;;;;;;;7.38;6.68;;;;;;;;;;5093619;28;20397;-74
2021/07/31 13:20:13;;;;;;;7.35;6.65;;;;;;;;;;5080675;28;20032;-74
2021/07/31 13:22:39;;;;;;;6.93;6.22;;;;;;;;;;5072409;28;20037;-74
2021/07/31 13:25:06;;;;;;;8.07;7.28;;;;;;;;;;5072013;28;20028;-73
2021/07/31 13:27:32;;;;;;;8.50;5.55;;;;;;;;;;5072533;28;20058;-73
2021/07/31 13:29:58;;;;;;;7.30;6.57;;;;;;;;;;5071803;28;20035;-72
2021/07/31 13:32:24;;;;;;;6.05;5.55;;;;;;;;;;5076494;28;20427;-72
2021/07/31 13:34:50;;;;;;;8.55;7.85;;;;;;;;;;5077009;28;20146;-75
2021/07/31 13:37:19;;;;;;;6.30;5.70;;;;;;;;;;5076963;28;20170;-76
2021/07/31 13:39:48;;;;;;;9.93;6.35;;;;;;;;;;5083840;28;20032;-72
2021/07/31 13:42:14;;;;;;;8.68;6.38;;;;;;;;;;5095539;28;20043;-71
2021/07/31 13:44:40;;;;;;;39.60;8.50;;;;;;;;;;5095106;28;20020;-72
2021/07/31 13:47:06;;;;;;;11.10;10.10;;;;;;;;;;5095598;28;20063;-75
2021/07/31 13:49:32;;;;;;;14.38;12.88;;;;;;;;;;5095710;28;20115;-74
2021/07/31 13:52:03;;;;;;;11.07;9.98;;;;;;;;;;5095595;28;20492;-79
2021/07/31 13:54:29;;;;;;;6.30;5.80;;;;;;;;;;5092973;28;20116;-75
2021/07/31 13:56:56;;;;;;;7.38;6.50;;;;;;;;;;5093691;28;20059;-77
2021/07/31 13:59:22;;;;;;;8.32;7.00;;;;;;;;;;5077070;28;20020;-77
2021/07/31 14:01:48;;;;;;;11.57;6.95;;;;;;;;;;5085172;28;20771;-75
2021/07/31 14:04:15;;;;;;;6.32;5.82;;;;;;;;;;5083627;28;20027;-77
2021/07/31 14:06:41;;;;;;;7.78;6.30;;;;;;;;;;5093824;28;20024;-76
2021/07/31 14:09:07;;;;;;;6.97;6.35;;;;;;;;;;5084284;28;20506;-76
2021/07/31 14:11:33;;;;;;;6.57;5.97;;;;;;;;;;5082634;28;20097;-77
2021/07/31 14:13:59;;;;;;;7.15;6.53;;;;;;;;;;5085631;28;20020;-74
2021/07/31 14:16:25;;;;;;;7.70;7.00;;;;;;;;;;5094749;28;20078;-75
2021/07/31 14:18:51;;;;;;;12.45;7.00;;;;;;;;;;5087223;28;20060;-76
2021/07/31 14:21:18;;;;;;;7.97;6.40;;;;;;;;;;5085323;28;20533;-77
2021/07/31 14:23:44;;;;;;;7.70;6.63;;;;;;;;;;5078258;28;20499;-74
2021/07/31 14:26:10;;;;;;;7.57;5.22;;;;;;;;;;5075444;28;20028;-75
2021/07/31 14:28:45;;;;;;;9.40;6.18;;;;;;;;;;5078030;28;20483;-75
2021/07/31 14:31:44;;;;;;;10.85;6.03;;;;;;;;;;5083356;28;20067;-74
2021/07/31 14:34:53;;;;;;;9.55;6.25;;;;;;;;;;5082036;28;20481;-74
2021/07/31 14:37:31;;;;;;;7.88;5.88;;;;;;;;;;5084013;28;20050;-74